Latest Weather Observations for Sellicks Hill

IDS60901

Issued at 9:31 pm CST Sunday 3 July 2022 (issued every 10 minutes, with the page automatically refreshed every 10 minutes)

About weather observations | Map of Adelaide area stations | Latest observations for Adelaide area | Other Formats
Station Details ID: 023886 Name: MOUNT TERRIBLE RADAR Lat: -35.33 Lon: 138.50 Height: 385.7 m
Data from the previous 72 hours. | See also: Recent months at Sellicks Hill
Date/Time
CST
Temp
°C
App
Temp
°C
Dew
Point
°C
Rel
Hum
%
Delta-T
°C
Wind Press
QNH
hPa
Press
MSL
hPa
Rain since
9am
mm
Dir  Spd
km/h
Gust
km/h
Spd
kts
Gust
kts
03/09:30pm - - - - - SSE 37 48 20 26 - - -
03/09:00pm - - - - - SSE 35 44 19 24 - - -
03/08:30pm - - - - - SSE 33 41 18 22 - - -
03/08:00pm - - - - - SSE 28 35 15 19 - - -
03/07:30pm - - - - - SSE 39 48 21 26 - - -
03/07:00pm - - - - - SSE 32 46 17 25 - - -
03/06:30pm - - - - - SSE 28 33 15 18 - - -
03/06:00pm - - - - - SSE 26 33 14 18 - - -
03/05:30pm - - - - - SSE 24 30 13 16 - - -
03/05:00pm - - - - - SSE 24 32 13 17 - - -
03/04:30pm - - - - - SSE 24 30 13 16 - - -
03/04:00pm - - - - - SSE 28 37 15 20 - - -
03/03:30pm - - - - - SSE 32 43 17 23 - - -
03/03:00pm - - - - - SSE 35 48 19 26 - - -
03/02:30pm - - - - - SSE 35 44 19 24 - - -
03/02:00pm - - - - - SSE 32 43 17 23 - - -
03/01:30pm - - - - - SSE 32 44 17 24 - - -
03/01:00pm - - - - - SSE 33 43 18 23 - - -
03/12:30pm - - - - - SSE 33 43 18 23 - - -
03/12:00pm - - - - - SE 26 35 14 19 - - -
03/11:30am - - - - - SE 26 35 14 19 - - -
03/11:00am - - - - - SE 20 30 11 16 - - -
03/10:30am - - - - - SE 17 22 9 12 - - -
03/10:00am - - - - - SE 19 30 10 16 - - -
03/09:30am - - - - - SE 19 30 10 16 - - -
03/09:00am - - - - - SE 19 32 10 17 - - -
03/08:30am - - - - - SE 15 26 8 14 - - -
03/08:00am - - - - - SE 15 22 8 12 - - -
03/07:30am - - - - - SE 17 22 9 12 - - -
03/07:00am - - - - - SE 17 22 9 12 - - -
03/06:30am - - - - - SE 17 24 9 13 - - -
03/06:00am - - - - - SE 15 20 8 11 - - -
03/05:30am - - - - - SE 15 19 8 10 - - -
03/05:00am - - - - - SE 15 19 8 10 - - -
03/04:30am - - - - - SE 15 20 8 11 - - -
03/04:00am - - - - - SE 17 20 9 11 - - -
03/03:30am - - - - - SSE 15 19 8 10 - - -
03/03:00am - - - - - SSE 20 24 11 13 - - -
03/02:30am - - - - - SE 19 26 10 14 - - -
03/02:00am - - - - - SSE 17 20 9 11 - - -
03/01:30am - - - - - SE 13 17 7 9 - - -
03/01:00am - - - - - SSE 13 17 7 9 - - -
03/12:30am - - - - - SSE 19 24 10 13 - - -
03/12:00am - - - - - SSE 22 26 12 14 - - -
 
Date/Time
CST
Temp
°C
App
Temp
°C
Dew
Point
°C
Rel
Hum
%
Delta-T
°C
Wind Press
QNH
hPa
Press
MSL
hPa
Rain since
9am
mm
Dir  Spd
km/h
Gust
km/h
Spd
kts
Gust
kts
02/11:30pm - - - - - SSE 24 30 13 16 - - -
02/11:00pm - - - - - SSE 20 24 11 13 - - -
02/10:30pm - - - - - SSE 17 20 9 11 - - -
02/10:00pm - - - - - SSE 17 20 9 11 - - -
02/09:30pm - - - - - SSE 24 28 13 15 - - -
02/09:00pm - - - - - SSE 24 30 13 16 - - -
02/08:30pm - - - - - SSE 22 24 12 13 - - -
02/08:00pm - - - - - SSE 28 32 15 17 - - -
02/07:30pm - - - - - SSE 28 28 15 15 - - -
02/07:00pm - - - - - SSE 22 24 12 13 - - -
02/06:30pm - - - - - SSE 19 20 10 11 - - -
02/06:00pm - - - - - SSE 15 17 8 9 - - -
02/05:30pm - - - - - SSE 17 19 9 10 - - -
02/05:00pm - - - - - SSE 15 17 8 9 - - -
02/04:30pm - - - - - SSE 13 15 7 8 - - -
02/04:00pm - - - - - SSE 13 17 7 9 - - -
02/03:30pm - - - - - SE 11 15 6 8 - - -
02/03:00pm - - - - - SSE 15 19 8 10 - - -
02/02:30pm - - - - - SSE 17 24 9 13 - - -
02/02:00pm - - - - - SSE 20 24 11 13 - - -
02/01:30pm - - - - - SSE 19 24 10 13 - - -
02/01:00pm - - - - - SSE 19 26 10 14 - - -
02/12:30pm - - - - - SSE 19 26 10 14 - - -
02/12:00pm - - - - - SSE 19 26 10 14 - - -
02/11:30am - - - - - SSE 17 24 9 13 - - -
02/11:00am - - - - - SSE 13 19 7 10 - - -
02/10:30am - - - - - SE 11 17 6 9 - - -
02/10:00am - - - - - SE 7 13 4 7 - - -
02/09:30am - - - - - ESE 7 13 4 7 - - -
02/09:00am - - - - - SE 7 9 4 5 - - -
02/08:30am - - - - - ESE 9 13 5 7 - - -
02/08:00am - - - - - SE 15 17 8 9 - - -
02/07:30am - - - - - SE 17 20 9 11 - - -
02/07:00am - - - - - SE 17 19 9 10 - - -
02/06:30am - - - - - SE 15 19 8 10 - - -
02/06:00am - - - - - SE 17 20 9 11 - - -
02/05:30am - - - - - SE 19 24 10 13 - - -
02/05:00am - - - - - SE 15 19 8 10 - - -
02/04:30am - - - - - SE 15 20 8 11 - - -
02/04:00am - - - - - SE 13 17 7 9 - - -
02/03:30am - - - - - SE 11 15 6 8 - - -
02/03:00am - - - - - SSE 6 7 3 4 - - -
02/02:30am - - - - - SSE 7 7 4 4 - - -
02/02:00am - - - - - SSE 4 7 2 4 - - -
02/01:30am - - - - - E 6 9 3 5 - - -
02/01:00am - - - - - ESE 4 7 2 4 - - -
02/12:30am - - - - - SE 4 6 2 3 - - -
02/12:00am - - - - - SSE 6 7 3 4 - - -
 
Date/Time
CST
Temp
°C
App
Temp
°C
Dew
Point
°C
Rel
Hum
%
Delta-T
°C
Wind Press
QNH
hPa
Press
MSL
hPa
Rain since
9am
mm
Dir  Spd
km/h
Gust
km/h
Spd
kts
Gust
kts
01/11:30pm - - - - - SE 7 9 4 5 - - -
01/11:00pm - - - - - SSE 11 13 6 7 - - -
01/10:30pm - - - - - SSE 17 20 9 11 - - -
01/10:00pm - - - - - SSE 13 15 7 8 - - -
01/09:30pm - - - - - SE 13 19 7 10 - - -
01/09:00pm - - - - - SSE 13 20 7 11 - - -
01/08:30pm - - - - - SSE 17 24 9 13 - - -
01/08:00pm - - - - - SSE 13 22 7 12 - - -
01/07:30pm - - - - - SSE 11 13 6 7 - - -
01/07:00pm - - - - - SE 11 13 6 7 - - -
01/06:30pm - - - - - SSE 11 15 6 8 - - -
01/06:00pm - - - - - SSE 15 19 8 10 - - -
01/05:30pm - - - - - S 15 17 8 9 - - -
01/05:00pm - - - - - S 15 17 8 9 - - -
01/04:30pm - - - - - SSE 17 22 9 12 - - -
01/04:00pm - - - - - SSE 17 20 9 11 - - -
01/03:30pm - - - - - SSE 13 17 7 9 - - -
01/03:00pm - - - - - SSE 17 22 9 12 - - -
01/02:30pm - - - - - SSE 15 20 8 11 - - -
01/02:00pm - - - - - SSE 17 20 9 11 - - -
01/01:30pm - - - - - SSE 15 19 8 10 - - -
01/01:00pm - - - - - SSE 13 17 7 9 - - -
01/12:30pm - - - - - SSE 17 22 9 12 - - -
01/12:00pm - - - - - SSE 13 17 7 9 - - -
01/11:30am - - - - - SSE 15 19 8 10 - - -
01/11:00am - - - - - SSE 19 24 10 13 - - -
01/10:30am - - - - - S 17 24 9 13 - - -
01/10:00am - - - - - SSE 15 20 8 11 - - -
01/09:30am - - - - - S 13 20 7 11 - - -
01/09:00am - - - - - SSE 13 15 7 8 - - -
01/08:30am - - - - - S 15 22 8 12 - - -
01/08:00am - - - - - S 13 20 7 11 - - -
01/07:30am - - - - - SSE 13 17 7 9 - - -
01/07:00am - - - - - SSE 15 19 8 10 - - -
01/06:30am - - - - - SSE 20 24 11 13 - - -
01/06:00am - - - - - SSE 13 15 7 8 - - -
01/05:30am - - - - - SSE 11 13 6 7 - - -
01/05:00am - - - - - SE 9 11 5 6 - - -
01/04:30am - - - - - SSE 11 17 6 9 - - -
01/04:00am - - - - - SE 15 20 8 11 - - -
01/03:30am - - - - - SE 17 22 9 12 - - -
01/03:00am - - - - - SE 17 22 9 12 - - -
01/02:30am - - - - - SSE 20 30 11 16 - - -
01/02:00am - - - - - SE 26 35 14 19 - - -
01/01:30am - - - - - SE 30 37 16 20 - - -
01/01:00am - - - - - SSE 33 43 18 23 - - -
01/12:30am - - - - - SSE 37 46 20 25 - - -
01/12:00am - - - - - SSE 35 46 19 25 - - -
 
Date/Time
CST
Temp
°C
App
Temp
°C
Dew
Point
°C
Rel
Hum
%
Delta-T
°C
Wind Press
QNH
hPa
Press
MSL
hPa
Rain since
9am
mm
Dir  Spd
km/h
Gust
km/h
Spd
kts
Gust
kts
30/11:30pm - - - - - SSE 35 44 19 24 - - -
30/11:00pm - - - - - SSE 35 43 19 23 - - -
30/10:30pm - - - - - SSE 33 41 18 22 - - -
30/10:00pm - - - - - SSE 30 33 16 18 - - -

Latest Capital City Observations: Canberra | Sydney | Melbourne | Brisbane | Adelaide | Perth | Hobart | Darwin

Other formats

Comma delimited format used in spreadsheet applications
http://www.bom.gov.au/fwo/IDS60901/IDS60901.95679.axf

JavaScript Object Notation format (JSON) in row-major order
http://www.bom.gov.au/fwo/IDS60901/IDS60901.95679.json

Data quality

Most of these data are generated automatically and are frequently updated. Quality checks on data are not normally performed. It is possible for incorrect values to appear. Refer to information at About Latest Weather Observations and please check the disclaimer before using these data.